Eastchester, New York
Current Conditions -  °F | °C
As of 7:56 AM on Monday 22 Dec 2014 (Local Time) from KHPN Reporting Station
Overcast Overcast  
Wind Chill: 35°   Ceiling: 1000
Heat Index: 35°   Visibility: 9mi
Dew Point: 32°   Wind: 3mph
Humidity: 89%   Direction: 50°NE
Pressure: 30.3"   Gusts: NA
Location:  40.96°N, 73.81°W
Report Text: KHPN 221256Z 05003KT 9SM OVC010 02/00 A3030 RMK AO2 SLP269 T00170000
Loading
Personal Weather Stations






























Interactive Weather Map New forecast layout! Learn more

10-Day Weather Forecast

Advertisements
Track Severe Weather on mobile